aviador You're here:

SABE Decoded Metar

BUENOS AIRES in ARGENTINA
Report Time2017-08-06 08:00:00
UTC Time2017-08-22 16:31:28
Flight Rules Old
Wind360° at 08 kt
W.Decomp.*RWY 31: 4.4 kt HW 6.7 kt RCW
Visibility9999 m
Phenomena:N/A
Clouds:N/A
Expected CloudBase > 800 ft AGL from Temp-Dew spread
CeilingNone
Temp15°C (ISA 0)
Dew Point13°C (88% RH)
AAT13.1°C
QNH1017 hPa
Density Alt89 ft
Elevation20 ft
Report Wrong Elevation
Raw Report
METAR SABE 060800Z 36008KT CAVOK 15/13 Q1017=

Extra information for SABE:More info

Metar Taf Metar & Taf Last 4 Metars F.Rules Stats Wind Profile Meteogram Temp Stats Airport Information Weather charts Add Link Nearby VenuesMetar ALERT Operation Metar Decoded Social comments